createdAt,value
2022-10-05T00:00:21.131Z,75.644000
2022-10-05T00:05:23.489Z,75.662857
2022-10-05T00:10:26.232Z,74.444000
2022-10-05T00:15:28.834Z,72.992000
2022-10-05T00:20:33.522Z,71.192000
2022-10-05T00:25:16.400Z,70.244000
2022-10-05T00:30:19.691Z,69.440000
2022-10-05T00:35:22.721Z,69.092857
2022-10-05T00:40:25.749Z,68.936000
2022-10-05T00:45:29.230Z,68.768000
2022-10-05T00:50:32.415Z,68.408000
2022-10-05T00:55:35.781Z,67.580000
2022-10-05T01:00:18.627Z,67.076000
2022-10-05T01:05:21.757Z,66.440000
2022-10-05T01:10:24.840Z,65.968571
2022-10-05T01:15:29.175Z,65.372000
2022-10-05T01:20:32.437Z,64.940000
2022-10-05T01:25:34.388Z,64.580000
2022-10-05T01:30:18.480Z,64.160000
2022-10-05T01:35:21.576Z,63.380000
2022-10-05T01:40:23.466Z,62.960000
2022-10-05T01:45:26.773Z,62.948000
2022-10-05T01:50:32.411Z,62.780000
2022-10-05T01:55:33.918Z,62.480000
2022-10-05T02:00:16.977Z,62.480000
2022-10-05T02:05:20.426Z,62.204000
2022-10-05T02:10:23.352Z,61.712857
2022-10-05T02:15:26.147Z,61.892000
2022-10-05T02:20:30.708Z,61.616000
2022-10-05T02:25:33.022Z,61.220000
2022-10-05T02:30:35.332Z,61.388000
2022-10-05T02:35:19.881Z,60.836000
2022-10-05T02:40:23.031Z,60.944000
2022-10-05T02:45:25.680Z,60.555714
2022-10-05T02:50:27.543Z,60.272000
2022-10-05T02:55:29.947Z,60.392000
2022-10-05T03:00:36.045Z,60.584000
2022-10-05T03:05:17.272Z,60.488000
2022-10-05T03:10:20.676Z,60.608000
2022-10-05T03:15:23.567Z,60.812857
2022-10-05T03:20:27.285Z,61.580000
2022-10-05T03:25:30.034Z,61.568000
2022-10-05T03:30:33.838Z,60.932000
2022-10-05T03:35:16.036Z,60.164000
2022-10-05T03:40:19.630Z,59.372000
2022-10-05T03:45:22.077Z,58.988000
2022-10-05T03:50:25.499Z,58.678571
2022-10-05T03:55:28.204Z,58.292000
2022-10-05T04:00:31.240Z,57.968000
2022-10-05T04:05:36.100Z,57.716000
2022-10-05T04:10:17.384Z,57.692000
2022-10-05T04:15:20.365Z,57.740000
2022-10-05T04:20:24.638Z,57.740000
2022-10-05T04:25:26.610Z,57.740000
2022-10-05T04:30:30.433Z,57.680000
2022-10-05T04:35:34.617Z,57.236000
2022-10-05T04:40:16.264Z,56.852000
2022-10-05T04:45:19.679Z,56.840000
2022-10-05T04:50:24.149Z,56.981429
2022-10-05T04:55:25.654Z,57.092000
2022-10-05T05:00:28.445Z,57.428000
2022-10-05T05:05:32.038Z,57.608000
2022-10-05T05:10:36.571Z,57.140000
2022-10-05T05:15:17.012Z,56.948000
2022-10-05T05:20:21.112Z,56.756000
2022-10-05T05:25:24.078Z,56.197143
2022-10-05T05:30:27.627Z,55.796000
2022-10-05T05:35:31.597Z,54.644000
2022-10-05T05:40:32.722Z,54.260000
2022-10-05T05:45:35.783Z,54.908000
2022-10-05T05:50:18.700Z,55.028000
2022-10-05T05:55:27.648Z,54.572000
2022-10-05T06:00:24.842Z,54.435714
2022-10-05T06:05:27.847Z,54.356000
2022-10-05T06:10:31.240Z,53.144000
2022-10-05T06:15:33.359Z,52.532000
2022-10-05T06:20:15.945Z,52.880000
2022-10-05T06:25:19.626Z,53.708000
2022-10-05T06:30:23.644Z,53.857143
2022-10-05T06:35:25.630Z,53.636000
2022-10-05T06:40:28.775Z,53.888000
2022-10-05T06:45:31.963Z,53.000000
2022-10-05T06:50:34.257Z,52.688000
2022-10-05T06:55:17.228Z,52.520000
2022-10-05T07:00:21.219Z,52.544000
2022-10-05T07:05:23.479Z,53.111429
2022-10-05T07:10:26.814Z,53.852000
2022-10-05T07:15:30.631Z,53.780000
2022-10-05T07:20:33.277Z,53.432000
2022-10-05T07:25:16.260Z,52.604000
2022-10-05T07:30:19.480Z,51.728000
2022-10-05T07:35:22.110Z,51.208571
2022-10-05T07:40:25.702Z,50.900000
2022-10-05T07:45:29.567Z,50.900000
2022-10-05T07:50:30.989Z,51.140000
2022-10-05T07:55:34.281Z,51.788000
2022-10-05T08:00:16.081Z,51.764000
2022-10-05T08:05:18.745Z,51.644000
2022-10-05T08:10:21.708Z,51.800000
2022-10-05T08:15:24.672Z,51.735714
2022-10-05T08:20:29.415Z,51.584000
2022-10-05T08:25:31.378Z,51.584000
2022-10-05T08:30:33.067Z,51.500000
2022-10-05T08:35:16.034Z,51.440000
2022-10-05T08:40:18.757Z,51.116000
2022-10-05T08:45:21.589Z,51.068000
2022-10-05T08:50:25.329Z,51.131429
2022-10-05T08:55:28.626Z,51.404000
2022-10-05T09:00:30.036Z,51.704000
2022-10-05T09:05:32.897Z,51.824000
2022-10-05T09:10:36.563Z,51.464000
2022-10-05T09:15:25.956Z,50.840000
2022-10-05T09:20:20.552Z,50.768000
2022-10-05T09:25:23.256Z,50.977143
2022-10-05T09:30:26.801Z,51.344000
2022-10-05T09:35:29.728Z,51.944000
2022-10-05T09:40:31.714Z,52.940000
2022-10-05T09:45:34.457Z,53.300000
2022-10-05T09:50:17.758Z,52.988000
2022-10-05T09:55:20.570Z,51.920000
2022-10-05T10:00:23.494Z,50.488571
2022-10-05T10:05:27.413Z,49.952000
2022-10-05T10:10:30.725Z,49.436000
2022-10-05T10:15:31.971Z,49.028000
2022-10-05T10:20:34.760Z,48.896000
2022-10-05T10:25:17.633Z,48.824000
2022-10-05T10:30:21.861Z,48.632000
2022-10-05T10:35:25.116Z,48.675714
2022-10-05T10:40:26.805Z,49.232000
2022-10-05T10:45:29.839Z,48.404000
2022-10-05T10:50:32.351Z,47.552000
2022-10-05T10:55:35.174Z,47.360000
2022-10-05T11:00:17.472Z,47.744000
2022-10-05T11:05:20.590Z,48.020000
2022-10-05T11:10:23.229Z,48.020000
2022-10-05T11:15:26.662Z,48.476000
2022-10-05T11:20:28.275Z,48.740000
2022-10-05T11:25:30.768Z,48.740000
2022-10-05T11:30:34.192Z,48.980000
2022-10-05T11:35:16.574Z,49.316000
2022-10-05T11:40:20.633Z,48.680000
2022-10-05T11:45:23.392Z,48.444286
2022-10-05T11:50:24.930Z,48.260000
2022-10-05T11:55:27.962Z,48.104000
2022-10-05T12:00:31.271Z,48.140000
2022-10-05T12:05:34.456Z,47.840000
2022-10-05T12:10:17.692Z,47.852000
2022-10-05T12:15:20.508Z,48.068000
2022-10-05T12:20:23.402Z,47.930000
2022-10-05T12:25:25.816Z,47.936000
2022-10-05T12:30:29.334Z,47.564000
2022-10-05T12:35:47.791Z,47.264000
2022-10-05T12:40:16.154Z,46.952000
2022-10-05T12:45:18.259Z,46.424000
2022-10-05T12:50:22.161Z,46.052000
2022-10-05T12:55:24.614Z,46.052857
2022-10-05T13:00:27.613Z,46.124000
2022-10-05T13:05:31.882Z,46.700000
2022-10-05T13:10:34.421Z,46.988000
2022-10-05T13:15:35.873Z,46.808000
2022-10-05T13:20:18.333Z,46.844000
2022-10-05T13:25:21.038Z,46.820000
2022-10-05T13:30:24.314Z,47.312857
2022-10-05T13:35:27.988Z,47.456000
2022-10-05T13:40:30.167Z,47.480000
2022-10-05T13:45:33.150Z,47.468000
2022-10-05T13:50:35.545Z,47.516000
2022-10-05T13:55:19.881Z,47.600000
2022-10-05T14:00:26.590Z,47.441429
2022-10-05T14:05:27.931Z,47.600000
2022-10-05T14:10:29.137Z,48.380000
2022-10-05T14:15:31.559Z,49.124000
2022-10-05T14:20:34.709Z,49.640000
2022-10-05T14:25:17.279Z,50.492000
2022-10-05T14:30:21.034Z,51.152000
2022-10-05T14:35:23.871Z,51.838571
2022-10-05T14:40:25.926Z,52.220000
2022-10-05T14:45:28.493Z,52.676000
2022-10-05T14:50:30.922Z,52.736000
2022-10-05T14:55:33.647Z,52.916000
2022-10-05T15:00:37.105Z,53.384000
2022-10-05T15:05:18.661Z,53.660000
2022-10-05T15:10:21.533Z,54.068000
2022-10-05T15:15:24.260Z,54.307143
2022-10-05T15:20:27.434Z,54.608000
2022-10-05T15:25:29.892Z,55.028000
2022-10-05T15:30:33.742Z,55.460000
2022-10-05T15:35:16.514Z,56.036000
2022-10-05T15:40:19.273Z,56.228000
2022-10-05T15:45:22.228Z,56.904286
2022-10-05T15:50:25.448Z,57.332000
2022-10-05T15:55:28.724Z,57.896000
2022-10-05T16:00:30.232Z,58.616000
2022-10-05T16:05:33.994Z,59.384000
2022-10-05T16:10:17.725Z,60.332000
2022-10-05T16:15:20.667Z,60.884000
2022-10-05T16:20:23.345Z,60.697143
2022-10-05T16:25:27.256Z,60.668000
2022-10-05T16:30:28.516Z,60.692000
2022-10-05T16:35:30.842Z,60.968000
2022-10-05T16:40:33.737Z,61.592000
2022-10-05T16:45:16.752Z,62.072000
2022-10-05T16:50:21.480Z,63.356000
2022-10-05T16:55:22.388Z,63.620000
2022-10-05T17:00:26.685Z,64.091429
2022-10-05T17:05:28.438Z,64.508000
2022-10-05T17:10:32.543Z,64.340000
2022-10-05T17:15:34.829Z,64.928000
2022-10-05T17:20:18.248Z,65.540000
2022-10-05T17:25:20.426Z,66.308000
2022-10-05T17:30:23.033Z,66.945714
2022-10-05T17:35:26.652Z,67.208000
2022-10-05T17:40:30.338Z,66.944000
2022-10-05T17:45:32.949Z,67.304000
2022-10-05T17:50:35.050Z,67.628000
2022-10-05T17:55:17.885Z,68.480000
2022-10-05T18:00:20.636Z,67.436000
2022-10-05T18:05:25.649Z,67.755714
2022-10-05T18:10:27.850Z,67.892000
2022-10-05T18:15:31.231Z,68.492000
2022-10-05T18:20:32.715Z,68.384000
2022-10-05T18:25:35.708Z,68.564000
2022-10-05T18:30:19.636Z,68.636000
2022-10-05T18:35:21.309Z,69.188000
2022-10-05T18:40:26.764Z,69.851429
2022-10-05T18:45:29.106Z,69.488000
2022-10-05T18:50:32.430Z,70.352000
2022-10-05T18:55:37.035Z,70.316000
2022-10-05T19:00:17.841Z,70.256000
2022-10-05T19:05:46.321Z,69.980000
2022-10-05T19:10:24.029Z,70.455714
2022-10-05T19:15:27.205Z,71.180000
2022-10-05T19:20:30.729Z,71.732000
2022-10-05T19:25:33.584Z,72.392000
2022-10-05T19:30:16.241Z,72.848000
2022-10-05T19:35:19.214Z,73.148000
2022-10-05T19:40:22.246Z,73.168571
2022-10-05T19:45:26.041Z,72.872000
2022-10-05T19:50:28.174Z,72.764000
2022-10-05T19:55:32.822Z,73.532000
2022-10-05T20:00:34.203Z,73.076000
2022-10-05T20:05:17.539Z,73.760000
2022-10-05T20:10:20.284Z,74.444000
2022-10-05T20:15:22.321Z,73.978571
2022-10-05T20:20:26.404Z,74.072000
2022-10-05T20:25:29.053Z,74.420000
2022-10-05T20:30:32.224Z,75.128000
2022-10-05T20:35:35.399Z,76.088000
2022-10-05T20:40:17.623Z,76.016000
2022-10-05T20:45:21.169Z,75.692000
2022-10-05T20:50:22.774Z,74.865714
2022-10-05T20:55:25.912Z,75.200000
2022-10-05T21:00:30.823Z,75.176000
2022-10-05T21:05:31.980Z,75.260000
2022-10-05T21:10:17.236Z,75.356000
2022-10-05T21:15:19.663Z,75.932000
2022-10-05T21:20:23.376Z,75.560000
2022-10-05T21:25:27.194Z,75.992000
2022-10-05T21:30:30.009Z,76.388000
2022-10-05T21:35:33.984Z,76.112000
2022-10-05T21:40:17.356Z,76.472000
2022-10-05T21:45:20.992Z,76.532000
2022-10-05T21:50:23.053Z,76.730000
2022-10-05T21:55:27.298Z,76.916000
2022-10-05T22:00:30.104Z,76.964000
2022-10-05T22:05:32.161Z,76.988000
2022-10-05T22:10:34.795Z,76.844000
2022-10-05T22:15:18.119Z,76.556000
2022-10-05T22:20:23.069Z,76.532000
2022-10-05T22:25:25.127Z,76.755714
2022-10-05T22:30:29.290Z,77.552000
2022-10-05T22:35:32.879Z,76.496000
2022-10-05T22:40:35.879Z,76.844000
2022-10-05T22:45:19.812Z,77.672000
2022-10-05T22:50:22.024Z,78.092000
2022-10-05T22:55:23.650Z,77.681429
2022-10-05T23:00:40.475Z,78.344000
2022-10-05T23:05:29.529Z,77.744000
2022-10-05T23:10:33.682Z,77.204000
2022-10-05T23:15:17.211Z,77.336000
2022-10-05T23:20:18.889Z,77.960000
2022-10-05T23:25:21.654Z,76.892000
2022-10-05T23:30:23.960Z,76.730000
2022-10-05T23:35:27.537Z,76.904000
2022-10-05T23:40:30.901Z,76.544000
2022-10-05T23:45:33.580Z,76.784000
2022-10-05T23:50:37.041Z,76.724000
2022-10-05T23:55:18.312Z,77.096000
